Time;durP1;ratioP1;P1;durP2;ratioP2;P2;SDS_P1;SDS_P2;PMS_P1;PMS_P2;Temp;Humidity;BMP_temperature;BMP_pressure;BME280_temperature;BME280_humidity;BME280_pressure;Samples;Min_cycle;Max_cycle;Signal;HPM_P1;HPM_P2
2023/04/28 00:01:29;;;;;;;5.63;4.00;;;;;;;12.40;63.52;99779.31;4928055;28;20039;-90
2023/04/28 00:03:57;;;;;;;13.85;4.00;;;;;;;12.45;63.36;99776.19;4952088;28;20130;-91
2023/04/28 00:06:24;;;;;;;7.38;3.60;;;;;;;12.45;63.60;99777.03;4927582;28;20053;-90
2023/04/28 00:08:51;;;;;;;6.43;3.70;;;;;;;12.43;63.25;99776.34;4928578;28;20059;-90
2023/04/28 00:11:18;;;;;;;4.85;3.35;;;;;;;12.43;63.07;99776.34;4947723;28;20102;-91
2023/04/28 00:13:45;;;;;;;7.28;3.28;;;;;;;12.45;62.94;99777.03;4943247;28;20145;-92
2023/04/28 00:16:12;;;;;;;6.82;3.35;;;;;;;12.48;62.69;99782.06;4965629;28;20039;-91
2023/04/28 00:18:39;;;;;;;6.95;3.85;;;;;;;12.52;62.06;99777.28;4941757;28;20122;-91
2023/04/28 00:21:06;;;;;;;8.02;3.97;;;;;;;12.52;62.25;99780.78;4946183;28;20137;-92
2023/04/28 00:23:33;;;;;;;6.90;3.60;;;;;;;12.51;62.57;99783.59;4945370;28;20050;-90
2023/04/28 00:25:59;;;;;;;7.20;4.40;;;;;;;12.54;62.17;99775.28;4942264;28;20089;-91
2023/04/28 00:28:26;;;;;;;5.88;3.70;;;;;;;12.52;62.57;99771.97;4916375;28;20053;-91
2023/04/28 00:31:00;;;;;;;6.20;4.18;;;;;;;12.53;62.64;99771.78;4916291;28;20405;-91
2023/04/28 00:33:26;;;;;;;5.75;3.50;;;;;;;12.52;62.06;99771.97;4943291;28;20477;-91
2023/04/28 00:36:00;;;;;;;5.47;3.85;;;;;;;12.53;62.82;99776.28;4931658;28;20103;-92
2023/04/28 00:38:27;;;;;;;7.32;4.15;;;;;;;12.50;63.67;99773.94;4935249;28;20057;-90
2023/04/28 00:40:54;;;;;;;6.55;4.10;;;;;;;12.50;63.61;99771.25;4941047;28;20536;-90
2023/04/28 00:43:21;;;;;;;5.05;3.70;;;;;;;12.49;64.07;99767.78;4908680;28;20057;-91
2023/04/28 00:45:48;;;;;;;5.15;3.67;;;;;;;12.44;65.30;99775.38;4911602;28;20047;-90
2023/04/28 00:48:16;;;;;;;7.60;3.67;;;;;;;12.42;65.50;99774.69;4931073;28;20039;-89
2023/04/28 00:50:43;;;;;;;5.35;3.80;;;;;;;12.41;66.12;99770.31;4930021;28;20114;-90
2023/04/28 00:53:11;;;;;;;18.42;4.93;;;;;;;12.41;66.35;99767.66;4931609;28;20043;-91
2023/04/28 00:55:38;;;;;;;9.10;4.10;;;;;;;12.38;67.93;99773.28;4928934;28;20085;-91
2023/04/28 00:58:06;;;;;;;10.07;5.05;;;;;;;12.35;68.70;99761.09;4929328;28;20051;-92
2023/04/28 01:00:33;;;;;;;6.63;4.10;;;;;;;12.32;69.04;99745.44;4945397;28;20079;-91
2023/04/28 01:03:00;;;;;;;8.10;4.28;;;;;;;12.25;69.81;99747.00;4912281;28;20047;-91
2023/04/28 01:05:32;;;;;;;7.88;4.18;;;;;;;12.22;71.00;99738.50;4945342;28;20040;-91
2023/04/28 01:07:59;;;;;;;10.20;4.65;;;;;;;12.20;71.71;99727.16;4947616;28;20051;-89
2023/04/28 01:10:26;;;;;;;7.55;4.18;;;;;;;12.23;71.77;99722.34;4925814;28;20051;-91
2023/04/28 01:12:53;;;;;;;7.47;4.38;;;;;;;12.19;72.54;99725.47;4924557;28;20046;-91
2023/04/28 01:15:20;;;;;;;5.55;3.88;;;;;;;12.18;71.93;99724.63;4926175;28;20905;-91
2023/04/28 01:17:50;;;;;;;6.57;3.90;;;;;;;12.19;72.26;99731.66;4946051;28;20051;-90
2023/04/28 01:20:16;;;;;;;6.32;4.10;;;;;;;12.20;72.27;99727.16;4930714;28;20054;-91
2023/04/28 01:22:43;;;;;;;5.00;3.38;;;;;;;12.16;72.32;99722.13;4925847;28;20093;-91
2023/04/28 01:25:10;;;;;;;7.78;3.85;;;;;;;12.19;73.50;99717.47;4943862;28;20047;-90
2023/04/28 01:27:37;;;;;;;5.05;3.60;;;;;;;12.19;73.16;99712.16;4925219;28;20043;-90
2023/04/28 01:30:05;;;;;;;6.47;3.88;;;;;;;12.19;73.49;99718.34;4932888;28;20537;-90
2023/04/28 01:32:32;;;;;;;5.80;3.80;;;;;;;12.09;73.91;99715.72;4934489;28;20051;-91
2023/04/28 01:35:02;;;;;;;7.13;4.03;;;;;;;12.13;73.49;99713.59;4910759;28;20046;-92
2023/04/28 01:37:29;;;;;;;6.47;4.40;;;;;;;12.09;74.30;99706.91;4925661;28;20046;-90
2023/04/28 01:39:56;;;;;;;5.50;3.70;;;;;;;12.12;74.28;99704.78;4937898;28;20047;-91
2023/04/28 01:42:24;;;;;;;8.10;4.32;;;;;;;12.09;74.90;99704.25;4945179;28;20557;-90
2023/04/28 01:44:51;;;;;;;9.30;4.63;;;;;;;12.08;75.03;99703.38;4941458;28;20047;-90
2023/04/28 01:47:19;;;;;;;6.80;3.85;;;;;;;12.08;75.04;99699.88;4945676;28;20141;-91
2023/04/28 01:49:47;;;;;;;5.65;3.92;;;;;;;12.10;74.93;99690.78;4927299;28;20729;-88
2023/04/28 01:52:14;;;;;;;8.35;3.58;;;;;;;12.08;74.92;99686.59;4939178;28;20809;-90
2023/04/28 01:54:41;;;;;;;7.47;4.35;;;;;;;12.06;74.99;99692.06;4926950;28;20047;-90
2023/04/28 01:57:08;;;;;;;7.05;4.55;;;;;;;12.03;74.92;99687.03;4940996;28;20066;-91
2023/04/28 01:59:35;;;;;;;7.75;4.28;;;;;;;11.99;74.93;99688.31;4928540;28;20050;-91
2023/04/28 02:02:04;;;;;;;8.90;3.63;;;;;;;11.99;74.47;99676.84;4928199;28;20043;-91
2023/04/28 02:04:32;;;;;;;7.88;4.28;;;;;;;12.00;74.72;99687.31;4954464;28;20058;-91
2023/04/28 02:06:58;;;;;;;7.18;4.55;;;;;;;11.99;74.51;99684.84;4906109;28;20122;-90
2023/04/28 02:09:25;;;;;;;8.00;4.40;;;;;;;12.02;74.78;99689.84;4929948;28;20061;-91
2023/04/28 02:11:52;;;;;;;8.20;4.32;;;;;;;12.00;75.42;99691.81;4928754;28;20092;-90
2023/04/28 02:14:20;;;;;;;7.50;4.25;;;;;;;11.99;76.32;99685.66;4925608;28;20054;-91
2023/04/28 02:16:47;;;;;;;5.43;3.90;;;;;;;12.00;76.84;99691.81;4943048;28;20070;-90
2023/04/28 02:19:14;;;;;;;6.47;4.13;;;;;;;11.95;76.76;99682.44;4929117;28;20047;-91
2023/04/28 02:21:41;;;;;;;6.03;3.97;;;;;;;11.95;77.00;99677.13;4958491;28;20059;-90
2023/04/28 02:24:08;;;;;;;5.80;4.40;;;;;;;11.99;77.07;99679.50;4955525;28;20073;-90
2023/04/28 02:26:35;;;;;;;5.85;4.13;;;;;;;12.04;76.36;99682.56;4912646;28;20051;-90
2023/04/28 02:29:05;;;;;;;7.63;4.85;;;;;;;12.04;75.80;99679.91;4936979;28;20050;-91
2023/04/28 02:31:32;;;;;;;14.40;4.47;;;;;;;11.98;76.49;99667.16;4948719;28;20959;-91
2023/04/28 02:33:59;;;;;;;10.70;4.50;;;;;;;11.96;76.62;99664.69;4943406;28;20058;-90
2023/04/28 02:36:26;;;;;;;6.00;4.50;;;;;;;11.95;76.51;99673.63;4925055;28;20050;-90
2023/04/28 02:38:53;;;;;;;6.85;4.10;;;;;;;11.94;76.58;99678.13;4931325;28;20109;-91
2023/04/28 02:41:20;;;;;;;5.88;4.40;;;;;;;11.93;76.89;99680.91;4927579;28;20418;-90
2023/04/28 02:43:47;;;;;;;5.72;4.03;;;;;;;11.92;77.08;99680.09;4937744;28;20130;-91
2023/04/28 02:46:13;;;;;;;8.38;4.40;;;;;;;11.92;77.46;99666.78;4925077;28;20058;-90
2023/04/28 02:48:41;;;;;;;8.20;4.35;;;;;;;11.92;77.58;99673.94;4941006;28;20549;-90
2023/04/28 02:51:09;;;;;;;10.45;4.30;;;;;;;11.91;77.01;99675.75;4925678;28;20042;-91
2023/04/28 02:53:36;;;;;;;6.75;4.45;;;;;;;11.87;77.08;99674.38;4943535;28;20066;-91
2023/04/28 02:56:04;;;;;;;7.65;4.50;;;;;;;11.88;76.76;99676.06;4937764;28;20138;-90
2023/04/28 02:58:32;;;;;;;8.43;4.90;;;;;;;11.88;76.63;99668.09;4944109;28;20047;-91
2023/04/28 03:00:58;;;;;;;8.57;4.75;;;;;;;11.94;76.36;99669.31;4949794;28;20047;-90
2023/04/28 03:03:25;;;;;;;8.13;5.72;;;;;;;11.90;76.95;99651.94;4939257;28;20130;-92
2023/04/28 03:06:01;;;;;;;8.75;4.78;;;;;;;11.86;78.42;99667.38;4941573;28;20042;-90
2023/04/28 03:08:28;;;;;;;6.65;4.75;;;;;;;11.96;77.68;99672.66;4937994;28;20047;-91
2023/04/28 03:10:55;;;;;;;7.43;5.10;;;;;;;11.94;78.23;99678.13;4929347;28;20058;-90
2023/04/28 03:13:22;;;;;;;9.95;4.88;;;;;;;11.95;78.59;99671.78;4924126;28;20047;-91
2023/04/28 03:15:49;;;;;;;9.23;5.57;;;;;;;11.91;79.40;99665.13;4928270;28;20821;-90
2023/04/28 03:18:17;;;;;;;10.07;5.15;;;;;;;11.95;78.89;99665.66;4926960;28;20047;-90
2023/04/28 03:20:44;;;;;;;7.80;4.93;;;;;;;11.90;78.59;99650.13;4937335;28;20042;-91
2023/04/28 03:23:10;;;;;;;8.68;5.35;;;;;;;11.89;79.08;99656.44;4931293;28;20047;-91
2023/04/28 03:25:37;;;;;;;8.60;4.47;;;;;;;11.93;78.83;99652.50;4930278;28;20047;-90
2023/04/28 03:28:04;;;;;;;8.40;5.30;;;;;;;11.90;79.53;99649.28;4926273;28;20057;-91
2023/04/28 03:30:31;;;;;;;11.88;5.65;;;;;;;11.89;80.08;99645.78;4938848;28;20047;-92
2023/04/28 03:32:58;;;;;;;7.20;4.88;;;;;;;11.91;79.73;99643.84;4924647;28;20069;-90
2023/04/28 03:35:25;;;;;;;9.32;5.40;;;;;;;11.88;80.16;99645.94;4923152;28;20046;-90
2023/04/28 03:37:52;;;;;;;7.72;5.88;;;;;;;11.92;79.92;99640.16;4938583;28;20167;-91
2023/04/28 03:40:19;;;;;;;9.30;5.57;;;;;;;11.90;79.45;99628.84;4942258;28;20506;-91
2023/04/28 03:43:23;;;;;;;9.82;5.32;;;;;;;11.82;80.61;99623.41;4927192;28;20163;-90
2023/04/28 03:46:10;;;;;;;12.25;5.72;;;;;;;11.79;81.26;99614.88;4943587;28;20051;-90
2023/04/28 03:48:37;;;;;;;15.25;7.13;;;;;;;11.84;81.03;99608.13;4943466;28;20101;-91
2023/04/28 03:51:04;;;;;;;10.32;6.13;;;;;;;11.88;80.74;99600.69;4927019;28;20069;-89
2023/04/28 03:53:31;;;;;;;11.48;6.72;;;;;;;11.93;80.47;99598.44;4964492;28;20554;-83
2023/04/28 03:55:58;;;;;;;11.10;6.53;;;;;;;11.89;81.02;99589.09;4943182;28;20549;-84
2023/04/28 03:58:26;;;;;;;11.32;6.72;;;;;;;11.88;81.12;99588.25;4933504;28;20561;-84
2023/04/28 04:00:53;;;;;;;11.18;7.10;;;;;;;11.89;81.21;99597.91;4929719;28;20147;-84
2023/04/28 04:03:21;;;;;;;13.70;6.50;;;;;;;11.89;81.70;99599.72;4915831;28;20066;-84
2023/04/28 04:05:48;;;;;;;14.00;7.28;;;;;;;11.94;81.28;99600.94;4955211;28;20051;-83
2023/04/28 04:08:15;;;;;;;9.85;6.80;;;;;;;11.94;82.01;99597.47;4933137;28;20054;-83
2023/04/28 04:10:42;;;;;;;12.13;6.30;;;;;;;11.91;82.29;99603.91;4930122;28;20050;-83
2023/04/28 04:13:09;;;;;;;13.98;6.47;;;;;;;11.91;82.19;99605.75;4949661;28;20051;-84
2023/04/28 04:15:36;;;;;;;22.02;7.55;;;;;;;11.98;81.69;99603.31;4944682;28;20672;-83
2023/04/28 04:18:03;;;;;;;13.95;7.00;;;;;;;12.01;80.85;99603.00;4949012;28;20081;-84
2023/04/28 04:20:46;;;;;;;10.65;7.00;;;;;;;11.93;81.26;99599.28;4949719;28;20134;-83
2023/04/28 04:23:13;;;;;;;11.82;6.93;;;;;;;11.91;81.03;99606.56;4956074;28;20081;-82
2023/04/28 04:25:40;;;;;;;10.93;6.55;;;;;;;11.98;81.01;99601.47;4947119;28;20047;-83
2023/04/28 04:28:08;;;;;;;12.90;7.13;;;;;;;11.99;80.76;99602.34;4934581;28;20071;-83
2023/04/28 04:30:35;;;;;;;13.55;7.22;;;;;;;11.98;81.09;99593.50;4958184;28;20047;-83
2023/04/28 04:33:03;;;;;;;11.57;7.00;;;;;;;11.98;81.12;99593.50;4947150;28;20043;-83
2023/04/28 04:35:30;;;;;;;15.23;7.20;;;;;;;11.99;80.97;99589.88;4945201;28;20049;-83
2023/04/28 04:37:57;;;;;;;10.60;6.93;;;;;;;12.00;81.15;99599.50;4932144;28;20491;-84
2023/04/28 04:40:24;;;;;;;12.63;7.43;;;;;;;11.98;82.22;99604.13;4930114;28;20046;-82
2023/04/28 04:42:51;;;;;;;12.18;7.65;;;;;;;12.01;82.24;99600.34;4949337;28;20104;-83
2023/04/28 04:45:19;;;;;;;14.27;9.30;;;;;;;12.01;81.78;99597.69;4927424;28;20055;-83
2023/04/28 04:47:47;;;;;;;12.27;7.18;;;;;;;11.99;81.66;99607.66;4931254;28;20051;-83
2023/04/28 04:50:14;;;;;;;14.63;7.60;;;;;;;11.94;82.17;99595.63;4914442;28;20101;-84
2023/04/28 04:52:41;;;;;;;14.07;8.45;;;;;;;12.01;82.21;99608.31;4944348;28;20117;-84
2023/04/28 04:55:10;;;;;;;16.75;7.85;;;;;;;11.97;82.12;99596.31;4931385;28;20054;-83
2023/04/28 04:57:38;;;;;;;15.18;8.60;;;;;;;11.99;81.47;99599.69;4930148;28;20055;-83
2023/04/28 05:00:32;;;;;;;13.45;7.95;;;;;;;11.92;82.15;99610.06;4947270;28;20101;-83
2023/04/28 05:02:59;;;;;;;19.23;8.95;;;;;;;11.95;81.70;99597.28;4932366;28;20134;-83
2023/04/28 05:05:26;;;;;;;23.42;9.15;;;;;;;11.91;82.31;99605.75;4942388;28;20086;-83
2023/04/28 05:08:08;;;;;;;24.67;8.90;;;;;;;11.96;82.09;99611.47;4956850;28;20137;-84
2023/04/28 05:10:35;;;;;;;35.85;12.93;;;;;;;11.98;81.85;99606.78;4943923;28;20121;-83
2023/04/28 05:13:03;;;;;;;17.30;9.05;;;;;;;12.01;81.82;99608.31;4938692;28;20051;-83
2023/04/28 05:15:30;;;;;;;18.88;8.82;;;;;;;11.97;82.37;99593.66;4942075;28;20146;-84
2023/04/28 05:18:20;;;;;;;15.32;8.38;;;;;;;11.98;82.69;99597.97;4944950;28;20394;-84
2023/04/28 05:20:47;;;;;;;19.48;9.00;;;;;;;11.99;82.98;99594.34;4948379;28;20057;-83
2023/04/28 05:23:16;;;;;;;16.15;8.57;;;;;;;11.99;83.33;99586.38;4942326;28;20050;-83
2023/04/28 05:25:43;;;;;;;17.98;8.98;;;;;;;12.00;83.73;99588.03;4927769;28;20384;-83
2023/04/28 05:28:10;;;;;;;19.25;9.02;;;;;;;12.02;83.91;99586.06;4931457;28;20507;-83
2023/04/28 05:30:37;;;;;;;21.55;9.65;;;;;;;12.06;83.62;99592.75;4946019;28;20051;-83
2023/04/28 05:33:04;;;;;;;24.02;9.73;;;;;;;12.08;83.19;99604.91;4941354;28;20081;-83
2023/04/28 05:35:31;;;;;;;20.48;10.18;;;;;;;12.06;83.02;99603.38;4930198;28;20067;-83
2023/04/28 05:37:58;;;;;;;18.27;9.73;;;;;;;12.08;82.51;99601.41;4929436;28;20561;-83
2023/04/28 05:40:26;;;;;;;17.55;9.73;;;;;;;12.11;82.46;99604.63;4956423;28;20054;-84
2023/04/28 05:42:53;;;;;;;25.98;10.55;;;;;;;12.09;82.95;99601.28;4958921;28;20102;-84
2023/04/28 05:45:20;;;;;;;28.75;10.45;;;;;;;12.09;82.96;99603.94;4939140;28;20055;-83
2023/04/28 05:47:48;;;;;;;35.63;12.23;;;;;;;12.02;83.52;99596.72;4930043;28;20043;-83
2023/04/28 05:50:15;;;;;;;31.67;11.85;;;;;;;12.03;83.53;99598.38;4927931;28;20055;-84
2023/04/28 05:52:42;;;;;;;22.98;11.45;;;;;;;12.06;83.62;99600.72;4945461;28;20098;-83
2023/04/28 05:55:09;;;;;;;25.40;11.25;;;;;;;12.06;83.73;99600.72;4931245;28;20577;-83
2023/04/28 05:57:36;;;;;;;22.08;11.27;;;;;;;12.07;83.43;99607.75;4958569;28;20059;-85
2023/04/28 06:00:18;;;;;;;27.58;11.27;;;;;;;12.02;84.52;99602.03;4934084;28;20097;-84
2023/04/28 06:02:45;;;;;;;23.83;12.15;;;;;;;12.05;84.12;99599.88;4931667;28;20054;-84
2023/04/28 06:05:12;;;;;;;25.38;11.93;;;;;;;12.06;84.14;99598.91;4929473;28;20069;-83
2023/04/28 06:07:39;;;;;;;33.38;12.13;;;;;;;12.08;84.14;99594.25;4935054;28;20067;-84
2023/04/28 06:10:08;;;;;;;24.35;11.75;;;;;;;12.06;83.92;99592.75;4959741;28;20137;-84
2023/04/28 06:12:35;;;;;;;26.83;11.98;;;;;;;12.11;84.39;99601.09;4964041;28;20050;-84
2023/04/28 06:15:03;;;;;;;25.10;12.88;;;;;;;12.14;84.72;99606.97;4941254;28;20368;-83
2023/04/28 06:17:31;;;;;;;25.13;14.43;;;;;;;12.11;85.41;99603.75;4961769;28;20534;-84
2023/04/28 06:19:58;;;;;;;28.35;15.68;;;;;;;12.17;85.26;99608.50;4945254;28;20039;-85
2023/04/28 06:22:25;;;;;;;32.90;15.98;;;;;;;12.15;85.68;99605.16;4943902;28;20058;-84
2023/04/28 06:24:52;;;;;;;26.00;14.75;;;;;;;12.11;85.96;99593.97;4942163;28;20054;-84
2023/04/28 06:27:27;;;;;;;29.83;13.98;;;;;;;12.12;86.37;99592.16;4930435;28;20039;-84
2023/04/28 06:29:55;;;;;;;26.92;13.98;;;;;;;12.09;86.59;99597.78;4942051;28;20130;-84
2023/04/28 06:32:21;;;;;;;31.00;15.00;;;;;;;12.14;86.49;99593.69;4957775;28;20411;-84
2023/04/28 06:34:48;;;;;;;31.90;15.32;;;;;;;12.08;86.53;99601.41;4945891;28;20049;-84
2023/04/28 06:37:15;;;;;;;32.38;14.90;;;;;;;12.05;86.75;99605.22;4959690;28;20166;-84
2023/04/28 06:39:42;;;;;;;27.90;13.32;;;;;;;12.11;85.82;99607.28;4947947;28;20047;-84
2023/04/28 06:42:08;;;;;;;30.73;14.98;;;;;;;12.09;86.56;99613.75;4963821;28;20138;-85
2023/04/28 06:44:40;;;;;;;32.20;13.23;;;;;;;12.08;87.21;99606.75;4911801;28;20094;-85
2023/04/28 06:47:08;;;;;;;33.33;14.32;;;;;;;12.08;87.54;99596.09;4926910;28;20051;-85
2023/04/28 06:49:37;;;;;;;30.25;13.93;;;;;;;12.08;87.14;99599.59;4944678;28;20057;-84
2023/04/28 06:52:06;;;;;;;26.70;15.05;;;;;;;12.11;87.11;99609.94;4940919;28;20077;-85
2023/04/28 06:54:33;;;;;;;29.60;13.75;;;;;;;12.12;87.54;99616.94;4958250;28;20384;-84
2023/04/28 06:57:01;;;;;;;31.73;13.43;;;;;;;12.13;87.34;99615.09;4954007;28;20046;-84
2023/04/28 06:59:27;;;;;;;28.30;12.40;;;;;;;12.14;87.30;99611.47;4942352;28;20409;-84
2023/04/28 07:01:57;;;;;;;30.30;14.18;;;;;;;12.17;86.97;99624.47;4930527;28;20058;-84
2023/04/28 07:04:42;;;;;;;32.20;14.75;;;;;;;12.10;87.87;99624.22;4960251;28;20043;-85
2023/04/28 07:07:10;;;;;;;41.25;14.15;;;;;;;12.07;87.86;99631.69;4958715;28;20079;-84
2023/04/28 07:09:37;;;;;;;31.02;14.02;;;;;;;12.07;87.62;99635.19;4959723;28;20126;-84
2023/04/28 07:12:04;;;;;;;31.67;14.77;;;;;;;12.09;87.61;99635.03;4928132;28;20414;-84
2023/04/28 07:14:30;;;;;;;31.10;15.50;;;;;;;12.09;88.13;99619.91;4929672;28;20085;-84
2023/04/28 07:16:57;;;;;;;35.83;15.27;;;;;;;12.09;88.76;99614.59;4939851;28;20065;-84
2023/04/28 07:19:24;;;;;;;38.33;15.80;;;;;;;12.04;89.54;99613.38;4926416;28;20042;-84
2023/04/28 07:21:51;;;;;;;33.60;13.80;;;;;;;12.01;90.11;99603.00;4953306;28;20574;-84
2023/04/28 07:24:17;;;;;;;36.47;15.27;;;;;;;12.06;89.99;99598.91;4961318;28;20823;-84
2023/04/28 07:26:45;;;;;;;36.67;15.88;;;;;;;12.05;89.91;99597.22;4971753;28;20049;-84
2023/04/28 07:29:13;;;;;;;41.00;16.75;;;;;;;12.07;89.73;99599.75;4954362;28;20447;-84
2023/04/28 07:31:40;;;;;;;41.45;16.10;;;;;;;12.10;89.85;99596.78;4943592;28;20097;-84
2023/04/28 07:34:07;;;;;;;35.05;17.50;;;;;;;12.13;89.60;99589.31;4958421;28;20047;-84
2023/04/28 07:36:34;;;;;;;30.45;16.35;;;;;;;12.18;89.58;99594.19;4959356;28;20051;-84
2023/04/28 07:39:01;;;;;;;40.97;17.55;;;;;;;12.19;89.88;99587.91;4946528;28;20099;-85
2023/04/28 07:41:27;;;;;;;36.58;18.70;;;;;;;12.21;90.19;99582.41;4956662;28;20447;-84
2023/04/28 07:43:54;;;;;;;35.13;16.48;;;;;;;12.28;89.68;99594.13;4944202;28;20040;-84
2023/04/28 07:46:22;;;;;;;43.72;18.48;;;;;;;12.30;89.95;99581.50;4946102;28;20458;-85
2023/04/28 07:48:49;;;;;;;39.75;17.50;;;;;;;12.34;89.81;99578.38;4956855;28;20039;-85
2023/04/28 07:51:16;;;;;;;40.38;18.75;;;;;;;12.31;90.30;99585.81;4928441;28;20422;-86
2023/04/28 07:53:42;;;;;;;38.85;19.88;;;;;;;12.34;89.30;99590.88;4954840;28;20043;-84
2023/04/28 07:56:11;;;;;;;37.75;17.25;;;;;;;12.34;89.02;99591.69;4944596;28;20046;-84
2023/04/28 07:58:37;;;;;;;37.70;16.65;;;;;;;12.32;88.92;99601.66;4930249;28;20039;-84
2023/04/28 08:01:04;;;;;;;42.50;17.08;;;;;;;12.36;88.68;99599.50;4941215;28;20043;-85
2023/04/28 08:03:31;;;;;;;39.65;17.73;;;;;;;12.30;89.89;99594.81;4939855;28;20414;-84
2023/04/28 08:05:59;;;;;;;45.70;17.65;;;;;;;12.41;89.22;99601.72;4945202;28;20058;-85
2023/04/28 08:08:27;;;;;;;38.10;16.88;;;;;;;12.40;89.79;99597.41;4955029;28;20402;-84
2023/04/28 08:10:53;;;;;;;45.78;17.75;;;;;;;12.45;89.49;99587.94;4930025;28;20075;-85
2023/04/28 08:13:20;;;;;;;37.42;15.95;;;;;;;12.52;89.16;99606.81;4939655;28;20153;-85
2023/04/28 08:15:47;;;;;;;42.35;18.17;;;;;;;12.54;89.13;99600.34;4924648;28;20137;-85
2023/04/28 08:18:14;;;;;;;45.67;19.77;;;;;;;12.56;89.28;99601.00;4941754;28;20086;-86
2023/04/28 08:20:41;;;;;;;59.53;23.63;;;;;;;12.58;89.03;99603.53;4938446;28;20048;-85
2023/04/28 08:23:08;;;;;;;51.40;20.88;;;;;;;12.59;89.27;99607.88;4929398;28;20042;-86
2023/04/28 08:25:35;;;;;;;59.60;21.52;;;;;;;12.62;89.46;99593.41;4944344;28;20059;-85
2023/04/28 08:28:02;;;;;;;51.67;23.13;;;;;;;12.67;89.54;99585.78;4939257;28;20118;-84
2023/04/28 08:30:29;;;;;;;54.95;21.35;;;;;;;12.72;89.34;99586.16;4922705;28;20078;-86
2023/04/28 08:32:56;;;;;;;55.42;23.55;;;;;;;12.76;89.59;99590.19;4943259;28;20050;-85
2023/04/28 08:35:22;;;;;;;44.50;19.92;;;;;;;12.77;89.65;99599.84;4943837;28;20067;-84
2023/04/28 08:37:54;;;;;;;45.17;18.30;;;;;;;12.78;89.39;99599.69;4961929;28;20114;-84
2023/04/28 08:40:23;;;;;;;49.15;19.27;;;;;;;12.78;89.71;99607.69;4955731;28;20071;-85
2023/04/28 08:42:49;;;;;;;50.00;21.00;;;;;;;12.77;89.71;99603.38;4941068;28;20047;-84
2023/04/28 08:45:16;;;;;;;48.97;20.35;;;;;;;12.76;89.60;99604.34;4954977;28;20055;-84
2023/04/28 08:47:48;;;;;;;55.03;23.27;;;;;;;12.76;89.84;99595.50;4939859;28;20097;-83
2023/04/28 08:50:21;;;;;;;53.67;23.00;;;;;;;12.77;90.05;99592.72;4932390;28;20054;-83
2023/04/28 08:52:47;;;;;;;56.22;22.30;;;;;;;12.79;89.70;99574.72;4959476;28;20047;-84
2023/04/28 08:55:15;;;;;;;58.85;22.17;;;;;;;12.85;89.79;99573.28;4956907;28;20043;-85
2023/04/28 08:57:44;;;;;;;73.07;24.42;;;;;;;12.88;89.90;99596.09;4958014;28;20551;-85
2023/04/28 09:00:44;;;;;;;59.38;22.95;;;;;;;12.84;91.33;99592.91;4956725;28;20113;-86
2023/04/28 09:03:12;;;;;;;53.42;21.90;;;;;;;12.91;89.78;99595.78;4946446;28;20089;-85
2023/04/28 09:05:39;;;;;;;57.25;23.27;;;;;;;12.92;89.84;99605.44;4948470;28;20047;-85
2023/04/28 09:08:06;;;;;;;55.33;26.13;;;;;;;12.90;90.28;99596.75;4957690;28;21016;-85
2023/04/28 09:10:33;;;;;;;54.75;21.98;;;;;;;12.92;89.82;99605.44;4955660;28;20046;-85
2023/04/28 09:12:59;;;;;;;60.72;24.83;;;;;;;12.93;89.82;99602.63;4972285;28;20046;-84
2023/04/28 09:15:26;;;;;;;57.75;22.75;;;;;;;12.96;89.97;99598.81;4943873;28;20597;-85
2023/04/28 09:17:53;;;;;;;62.55;23.45;;;;;;;12.95;89.87;99592.66;4945749;28;20122;-86
2023/04/28 09:20:27;;;;;;;61.45;24.30;;;;;;;12.96;90.33;99599.66;4961562;28;20050;-85
2023/04/28 09:22:55;;;;;;;61.72;21.63;;;;;;;13.02;90.12;99596.34;4960955;28;20043;-85
2023/04/28 09:25:22;;;;;;;64.65;22.77;;;;;;;13.04;90.49;99593.53;4958261;28;20532;-86
2023/04/28 09:27:49;;;;;;;51.85;23.23;;;;;;;13.06;90.52;99594.22;4944476;28;20061;-86
2023/04/28 09:30:16;;;;;;;58.75;23.70;;;;;;;13.08;90.37;99594.03;4942835;28;20061;-86
2023/04/28 09:32:43;;;;;;;60.25;25.15;;;;;;;13.09;90.37;99593.06;4955660;28;20050;-86
2023/04/28 09:35:10;;;;;;;57.47;22.80;;;;;;;13.10;90.95;99587.59;4949150;28;20046;-85
2023/04/28 09:37:37;;;;;;;66.40;25.17;;;;;;;13.10;90.88;99594.72;4927173;28;20055;-86
2023/04/28 09:40:08;;;;;;;60.38;25.33;;;;;;;13.10;91.63;99592.06;4957004;28;20724;-85
2023/04/28 09:42:41;;;;;;;55.08;22.95;;;;;;;13.11;91.58;99591.91;4915607;28;20089;-85
2023/04/28 09:45:08;;;;;;;57.67;25.10;;;;;;;13.14;91.18;99594.25;4946212;28;20149;-86
2023/04/28 09:47:37;;;;;;;56.50;22.15;;;;;;;13.16;91.19;99599.44;4952464;28;20402;-86
2023/04/28 09:50:08;;;;;;;62.08;24.30;;;;;;;13.16;91.15;99599.44;4963081;28;20518;-86
2023/04/28 09:52:35;;;;;;;58.72;24.95;;;;;;;13.14;91.86;99594.25;4959256;28;20049;-85
2023/04/28 09:55:04;;;;;;;62.10;25.13;;;;;;;13.16;91.41;99589.59;4934748;28;20051;-86
2023/04/28 09:57:32;;;;;;;53.88;25.15;;;;;;;13.18;91.52;99587.63;4926856;28;20074;-86
2023/04/28 10:00:00;;;;;;;57.08;24.17;;;;;;;13.18;91.63;99589.47;4935804;28;20055;-86
2023/04/28 10:02:28;;;;;;;52.00;22.42;;;;;;;13.19;91.88;99589.28;4946072;28;20137;-86
2023/04/28 10:04:58;;;;;;;55.58;23.67;;;;;;;13.19;92.07;99575.13;4941375;28;20139;-86
2023/04/28 10:07:25;;;;;;;51.10;21.92;;;;;;;13.20;91.97;99574.13;4961802;28;20065;-86
2023/04/28 10:09:55;;;;;;;50.45;20.50;;;;;;;13.22;92.16;99578.28;4958970;28;20050;-84
2023/04/28 10:12:23;;;;;;;50.35;21.20;;;;;;;13.25;92.24;99580.66;4923924;28;20055;-83
2023/04/28 10:14:53;;;;;;;52.20;21.10;;;;;;;13.23;92.59;99569.31;4916963;28;20130;-86
2023/04/28 10:18:19;;;;;;;43.67;20.25;;;;;;;13.16;94.60;99565.63;4920291;28;20068;-85
2023/04/28 10:20:47;;;;;;;41.80;18.92;;;;;;;13.24;92.77;99570.97;4936329;28;20491;-84
2023/04/28 10:23:46;;;;;;;42.88;18.60;;;;;;;13.20;95.18;99568.78;4954911;28;20514;-85
2023/04/28 10:26:17;;;;;;;41.30;18.55;;;;;;;13.23;93.27;99572.00;4958209;28;20043;-86
2023/04/28 10:28:46;;;;;;;46.70;19.80;;;;;;;13.26;93.35;99576.16;4922884;28;20406;-85
2023/04/28 10:31:20;;;;;;;40.28;17.88;;;;;;;13.24;93.80;99576.31;4946221;28;20042;-86
2023/04/28 10:33:48;;;;;;;46.70;21.33;;;;;;;13.27;93.41;99579.69;4925439;28;20050;-86
2023/04/28 10:36:47;;;;;;;41.15;18.13;;;;;;;13.22;94.73;99580.97;4938554;28;20047;-86
2023/04/28 10:39:14;;;;;;;43.15;19.83;;;;;;;13.27;93.27;99583.19;4941508;28;20102;-85
2023/04/28 10:41:41;;;;;;;39.63;18.77;;;;;;;13.27;93.25;99583.19;4942102;28;20534;-86
2023/04/28 10:44:29;;;;;;;39.53;17.40;;;;;;;13.24;94.36;99592.31;4927617;28;20051;-87
2023/04/28 10:47:02;;;;;;;38.65;17.73;;;;;;;13.27;93.64;99585.84;4954493;28;20106;-86
2023/04/28 10:49:56;;;;;;;37.40;17.50;;;;;;;13.25;94.75;99586.00;4968932;28;20050;-87
2023/04/28 10:52:31;;;;;;;35.15;17.42;;;;;;;13.29;94.24;99593.72;4956165;28;20054;-86
2023/04/28 10:55:35;;;;;;;42.20;17.55;;;;;;;13.28;94.87;99586.69;4956073;28;20435;-86
2023/04/28 10:58:14;;;;;;;43.67;18.05;;;;;;;13.29;95.13;99591.88;4954311;28;20039;-86
2023/04/28 11:00:41;;;;;;;44.80;18.77;;;;;;;13.32;94.63;99585.38;4957318;28;20042;-86
2023/04/28 11:03:08;;;;;;;45.33;19.77;;;;;;;13.31;94.78;99586.38;4945368;28;20046;-86
2023/04/28 11:05:35;;;;;;;47.60;19.45;;;;;;;13.29;94.70;99581.22;4940708;28;20094;-86
2023/04/28 11:08:17;;;;;;;42.03;20.65;;;;;;;13.24;96.27;99581.66;4943891;28;20494;-85
2023/04/28 11:11:13;;;;;;;46.63;19.48;;;;;;;13.22;97.33;99580.13;4962613;28;20043;-85
2023/04/28 11:13:40;;;;;;;45.97;20.13;;;;;;;13.27;95.70;99577.03;4943506;28;20471;-85
2023/04/28 11:16:08;;;;;;;50.65;21.70;;;;;;;13.27;96.12;99571.69;4955846;28;20051;-85
2023/04/28 11:18:52;;;;;;;47.63;21.65;;;;;;;13.18;98.89;99582.28;4939740;28;20050;-85
2023/04/28 11:21:23;;;;;;;48.08;21.42;;;;;;;13.23;96.74;99574.66;4955670;28;20041;-85
2023/04/28 11:23:50;;;;;;;48.85;22.95;;;;;;;13.21;96.76;99571.31;4953086;28;20055;-85
2023/04/28 11:26:18;;;;;;;46.20;19.25;;;;;;;13.23;96.67;99571.16;4955253;28;20039;-85
2023/04/28 11:28:49;;;;;;;50.05;22.73;;;;;;;13.23;96.83;99577.31;4937184;28;20046;-85
2023/04/28 11:31:18;;;;;;;49.60;23.20;;;;;;;13.23;97.37;99576.50;4945146;28;20067;-86
2023/04/28 11:33:47;;;;;;;56.10;25.63;;;;;;;13.20;98.38;99568.78;4928532;28;20046;-85